createdAt,value
2023-07-30T00:02:01.042Z,1.33
2023-07-30T00:04:28.823Z,1.40
2023-07-30T00:06:56.763Z,1.40
2023-07-30T00:09:24.786Z,1.50
2023-07-30T00:11:52.690Z,1.48
2023-07-30T00:14:21.001Z,1.63
2023-07-30T00:19:16.699Z,1.10
2023-07-30T00:21:47.989Z,1.60
2023-07-30T00:24:16.143Z,1.52
2023-07-30T00:29:12.498Z,0.95
2023-07-30T00:34:46.521Z,1.75
2023-07-30T00:37:14.272Z,1.88
2023-07-30T00:39:42.068Z,2.00
2023-07-30T00:42:09.786Z,1.50
2023-07-30T00:44:37.461Z,1.35
2023-07-30T00:47:05.969Z,1.80
2023-07-30T00:49:34.314Z,2.17
2023-07-30T00:54:30.558Z,1.33
2023-07-30T00:56:58.487Z,1.17
2023-07-30T00:59:26.585Z,1.77
2023-07-30T01:01:54.832Z,1.33
2023-07-30T01:04:23.499Z,1.33
2023-07-30T01:06:51.304Z,1.60
2023-07-30T01:09:19.031Z,1.30
2023-07-30T01:11:47.208Z,1.50
2023-07-30T01:14:15.807Z,1.45
2023-07-30T01:16:43.917Z,1.95
2023-07-30T01:19:11.843Z,1.35
2023-07-30T01:21:39.885Z,1.70
2023-07-30T01:24:07.887Z,1.67
2023-07-30T01:26:55.087Z,1.77
2023-07-30T01:29:44.391Z,1.73
2023-07-30T01:32:15.040Z,1.55
2023-07-30T01:34:44.685Z,1.85
2023-07-30T01:37:15.467Z,1.75
2023-07-30T01:39:45.564Z,1.92
2023-07-30T01:42:17.398Z,2.05
2023-07-30T01:44:45.483Z,2.20
2023-07-30T01:47:13.487Z,2.78
2023-07-30T01:49:41.494Z,1.60
2023-07-30T01:52:09.213Z,1.73
2023-07-30T01:54:37.017Z,1.23
2023-07-30T01:57:05.370Z,1.45
2023-07-30T01:59:33.070Z,1.98
2023-07-30T02:02:00.813Z,1.77
2023-07-30T02:04:28.676Z,1.60
2023-07-30T02:06:56.593Z,2.20
2023-07-30T02:09:24.331Z,1.80
2023-07-30T02:11:52.694Z,2.15
2023-07-30T02:14:20.552Z,1.90
2023-07-30T02:16:48.276Z,1.70
2023-07-30T02:19:16.557Z,1.92
2023-07-30T02:21:44.461Z,1.75
2023-07-30T02:24:13.293Z,1.70
2023-07-30T02:26:41.320Z,1.20
2023-07-30T02:29:09.097Z,1.58
2023-07-30T02:31:37.148Z,1.75
2023-07-30T02:36:33.197Z,2.10
2023-07-30T02:39:00.945Z,1.77
2023-07-30T02:41:28.653Z,1.63
2023-07-30T02:43:56.357Z,1.80
2023-07-30T02:46:24.030Z,1.70
2023-07-30T02:48:51.711Z,1.52
2023-07-30T02:51:19.321Z,1.63
2023-07-30T02:53:46.976Z,1.60
2023-07-30T02:56:14.942Z,1.70
2023-07-30T02:58:42.761Z,2.15
2023-07-30T03:01:11.101Z,1.60
2023-07-30T03:03:38.880Z,2.00
2023-07-30T03:06:06.797Z,1.65
2023-07-30T03:08:34.540Z,1.30
2023-07-30T03:11:02.437Z,1.80
2023-07-30T03:13:30.077Z,1.63
2023-07-30T03:15:57.858Z,1.80
2023-07-30T03:18:25.599Z,1.38
2023-07-30T03:20:53.256Z,1.92
2023-07-30T03:23:21.039Z,1.80
2023-07-30T03:25:48.722Z,1.90
2023-07-30T03:28:16.597Z,1.83
2023-07-30T03:30:44.341Z,1.60
2023-07-30T03:33:12.038Z,1.33
2023-07-30T03:35:39.746Z,1.75
2023-07-30T03:38:07.563Z,1.60
2023-07-30T03:40:35.243Z,1.80
2023-07-30T03:43:02.941Z,1.65
2023-07-30T03:45:30.722Z,1.65
2023-07-30T03:47:58.505Z,1.80
2023-07-30T03:50:26.323Z,1.00
2023-07-30T03:52:54.471Z,1.27
2023-07-30T03:55:22.322Z,2.30
2023-07-30T03:57:50.024Z,1.70
2023-07-30T04:00:18.158Z,1.95
2023-07-30T04:02:45.951Z,2.00
2023-07-30T04:05:15.463Z,1.38
2023-07-30T04:07:44.763Z,1.45
2023-07-30T04:10:12.496Z,1.60
2023-07-30T04:12:40.195Z,1.92
2023-07-30T04:15:08.458Z,1.50
2023-07-30T04:17:39.312Z,2.20
2023-07-30T04:20:07.603Z,1.90
2023-07-30T04:22:35.279Z,1.95
2023-07-30T04:25:03.140Z,2.00
2023-07-30T04:27:32.493Z,1.77
2023-07-30T04:30:02.049Z,2.00
2023-07-30T04:32:29.860Z,2.15
2023-07-30T04:34:57.654Z,1.70
2023-07-30T04:37:25.523Z,1.92
2023-07-30T04:39:53.210Z,1.65
2023-07-30T04:42:20.942Z,1.70
2023-07-30T04:44:48.747Z,2.13
2023-07-30T04:47:16.452Z,1.88
2023-07-30T04:49:44.246Z,1.73
2023-07-30T04:52:12.372Z,1.88
2023-07-30T04:54:40.173Z,1.67
2023-07-30T04:57:08.072Z,1.70
2023-07-30T04:59:35.872Z,1.77
2023-07-30T05:02:03.994Z,1.48
2023-07-30T05:04:31.761Z,2.10
2023-07-30T05:06:59.417Z,1.88
2023-07-30T05:09:28.064Z,1.85
2023-07-30T05:11:55.701Z,1.92
2023-07-30T05:14:25.286Z,1.80
2023-07-30T05:16:52.925Z,2.33
2023-07-30T05:19:20.660Z,1.88
2023-07-30T05:21:48.625Z,1.88
2023-07-30T05:24:16.541Z,2.03
2023-07-30T05:26:44.528Z,1.98
2023-07-30T05:29:12.424Z,2.15
2023-07-30T05:31:40.510Z,2.40
2023-07-30T05:34:08.613Z,2.13
2023-07-30T05:36:36.392Z,2.10
2023-07-30T05:39:04.447Z,2.58
2023-07-30T05:41:32.174Z,3.33
2023-07-30T05:44:00.015Z,2.42
2023-07-30T05:46:27.774Z,2.30
2023-07-30T05:48:55.521Z,1.88
2023-07-30T05:51:23.491Z,2.20
2023-07-30T05:53:51.408Z,2.50
2023-07-30T05:56:20.524Z,1.80
2023-07-30T05:58:48.485Z,2.13
2023-07-30T06:01:16.544Z,2.30
2023-07-30T06:03:44.470Z,2.40
2023-07-30T06:06:12.374Z,2.08
2023-07-30T06:08:39.996Z,2.65
2023-07-30T06:11:07.764Z,2.33
2023-07-30T06:13:35.587Z,2.13
2023-07-30T06:16:03.638Z,2.13
2023-07-30T06:18:31.419Z,1.88
2023-07-30T06:20:59.130Z,1.95
2023-07-30T06:23:26.730Z,1.45
2023-07-30T06:25:54.429Z,1.65
2023-07-30T06:28:22.187Z,2.33
2023-07-30T06:30:49.818Z,1.63
2023-07-30T06:33:17.698Z,1.90
2023-07-30T06:35:45.410Z,1.90
2023-07-30T06:38:13.205Z,2.33
2023-07-30T06:40:40.878Z,2.30
2023-07-30T06:43:08.547Z,1.80
2023-07-30T06:45:36.394Z,2.17
2023-07-30T06:48:04.223Z,1.83
2023-07-30T06:50:31.866Z,1.73
2023-07-30T06:52:59.530Z,1.67
2023-07-30T06:55:27.726Z,1.90
2023-07-30T06:57:55.487Z,2.38
2023-07-30T07:00:23.278Z,1.58
2023-07-30T07:02:51.721Z,2.50
2023-07-30T07:07:47.861Z,1.95
2023-07-30T07:10:16.622Z,2.67
2023-07-30T07:12:44.445Z,1.83
2023-07-30T07:15:12.578Z,8.52
2023-07-30T07:17:41.264Z,2.83
2023-07-30T07:20:09.450Z,2.00
2023-07-30T07:22:37.101Z,2.45
2023-07-30T07:25:05.163Z,1.85
2023-07-30T07:30:03.428Z,1.88
2023-07-30T07:32:31.162Z,2.00
2023-07-30T07:34:58.911Z,2.13
2023-07-30T07:37:26.540Z,2.13
2023-07-30T07:39:54.574Z,1.60
2023-07-30T07:44:49.765Z,1.90
2023-07-30T07:47:17.831Z,2.75
2023-07-30T07:49:46.543Z,1.88
2023-07-30T07:52:14.561Z,2.15
2023-07-30T07:57:11.456Z,1.85
2023-07-30T07:59:39.252Z,2.60
2023-07-30T08:02:07.587Z,2.40
2023-07-30T08:04:35.665Z,2.85
2023-07-30T08:09:33.689Z,2.38
2023-07-30T08:12:02.707Z,2.30
2023-07-30T08:14:31.754Z,2.10
2023-07-30T08:16:59.697Z,2.58
2023-07-30T08:19:27.684Z,3.17
2023-07-30T08:21:58.051Z,1.80
2023-07-30T08:24:25.854Z,2.45
2023-07-30T08:26:53.704Z,1.88
2023-07-30T08:29:21.431Z,2.17
2023-07-30T08:31:49.535Z,1.65
2023-07-30T08:34:17.361Z,1.75
2023-07-30T08:36:45.566Z,1.60
2023-07-30T08:39:13.404Z,1.95
2023-07-30T08:41:41.622Z,2.53
2023-07-30T08:44:11.532Z,1.85
2023-07-30T08:46:40.549Z,2.13
2023-07-30T08:49:08.618Z,1.50
2023-07-30T08:51:41.271Z,1.77
2023-07-30T08:54:11.093Z,1.23
2023-07-30T08:56:38.774Z,2.08
2023-07-30T09:01:41.214Z,2.20
2023-07-30T09:04:10.596Z,1.52
2023-07-30T09:06:40.525Z,1.92
2023-07-30T09:09:11.442Z,1.75
2023-07-30T09:11:39.775Z,2.42
2023-07-30T09:14:09.190Z,3.40
2023-07-30T09:16:37.053Z,2.95
2023-07-30T09:21:36.958Z,1.85
2023-07-30T09:24:07.341Z,2.03
2023-07-30T09:26:54.918Z,2.25
2023-07-30T09:29:22.768Z,1.90
2023-07-30T09:34:21.625Z,2.28
2023-07-30T09:36:54.673Z,1.90
2023-07-30T09:39:27.803Z,2.05
2023-07-30T09:42:02.509Z,2.50
2023-07-30T09:44:33.606Z,2.28
2023-07-30T09:47:07.239Z,2.05
2023-07-30T09:49:36.523Z,2.00
2023-07-30T09:52:07.041Z,1.52
2023-07-30T09:54:35.342Z,1.90
2023-07-30T09:57:03.302Z,2.13
2023-07-30T10:02:01.943Z,2.08
2023-07-30T10:04:32.280Z,2.10
2023-07-30T10:07:11.086Z,1.85
2023-07-30T10:09:45.646Z,2.03
2023-07-30T10:12:18.046Z,2.05
2023-07-30T10:14:46.279Z,2.05
2023-07-30T10:17:14.580Z,1.98
2023-07-30T10:19:42.430Z,1.63
2023-07-30T10:22:13.655Z,2.40
2023-07-30T10:24:42.481Z,1.92
2023-07-30T10:27:14.651Z,1.48
2023-07-30T10:29:42.943Z,1.73
2023-07-30T10:32:10.965Z,1.65
2023-07-30T10:39:52.051Z,2.08
2023-07-30T10:42:20.787Z,1.48
2023-07-30T10:44:48.782Z,1.70
2023-07-30T10:50:05.578Z,1.38
2023-07-30T10:52:33.421Z,1.52
2023-07-30T10:57:33.547Z,1.50
2023-07-30T11:00:01.834Z,1.13
2023-07-30T11:02:31.295Z,1.30
2023-07-30T11:04:59.598Z,1.52
2023-07-30T11:07:27.529Z,1.33
2023-07-30T11:12:30.802Z,1.60
2023-07-30T11:15:03.767Z,1.08
2023-07-30T11:17:32.169Z,1.33
2023-07-30T11:20:00.299Z,1.00
2023-07-30T11:25:10.531Z,1.30
2023-07-30T11:27:52.820Z,0.98
2023-07-30T11:30:20.904Z,1.33
2023-07-30T11:32:49.056Z,1.05
2023-07-30T11:35:18.730Z,1.38
2023-07-30T11:37:46.752Z,1.17
2023-07-30T11:40:14.925Z,1.35
2023-07-30T11:42:44.616Z,1.73
2023-07-30T11:45:21.121Z,1.17
2023-07-30T11:47:50.592Z,1.15
2023-07-30T11:50:18.511Z,1.20
2023-07-30T11:53:04.564Z,1.30
2023-07-30T11:55:40.525Z,1.33
2023-07-30T11:58:09.361Z,1.45
2023-07-30T12:00:39.561Z,1.52
2023-07-30T12:03:11.054Z,1.10
2023-07-30T12:05:40.766Z,1.00
2023-07-30T12:08:16.018Z,1.40
2023-07-30T12:10:53.601Z,1.50
2023-07-30T12:13:21.805Z,1.08
2023-07-30T12:15:57.625Z,1.25
2023-07-30T12:18:26.843Z,1.30
2023-07-30T12:20:55.185Z,1.00
2023-07-30T12:23:23.491Z,1.17
2023-07-30T12:25:52.869Z,1.40
2023-07-30T12:28:20.646Z,1.40
2023-07-30T12:30:48.616Z,1.75
2023-07-30T12:33:16.611Z,0.90
2023-07-30T12:35:47.364Z,1.50
2023-07-30T12:38:16.328Z,1.10
2023-07-30T12:40:44.193Z,1.38
2023-07-30T12:43:12.147Z,1.27
2023-07-30T12:48:09.682Z,1.25
2023-07-30T12:50:37.653Z,1.40
2023-07-30T12:55:33.623Z,1.70
2023-07-30T12:58:01.626Z,1.15
2023-07-30T13:00:29.842Z,1.30
2023-07-30T13:02:58.962Z,1.38
2023-07-30T13:05:27.623Z,1.50
2023-07-30T13:07:55.682Z,1.42
2023-07-30T13:10:23.492Z,2.15
2023-07-30T13:12:51.766Z,2.03
2023-07-30T13:15:20.046Z,1.73
2023-07-30T13:17:48.074Z,2.15
2023-07-30T13:20:18.277Z,1.52
2023-07-30T13:22:47.609Z,1.77
2023-07-30T13:27:43.236Z,1.52
2023-07-30T13:30:11.547Z,1.92
2023-07-30T13:32:39.513Z,1.80
2023-07-30T13:35:07.453Z,1.92
2023-07-30T13:37:35.478Z,1.25
2023-07-30T13:40:03.459Z,1.52
2023-07-30T13:42:31.188Z,1.42
2023-07-30T13:44:59.051Z,1.33
2023-07-30T13:47:27.032Z,1.27
2023-07-30T13:49:55.744Z,2.28
2023-07-30T13:52:23.507Z,1.70
2023-07-30T13:54:51.329Z,1.88
2023-07-30T13:59:54.647Z,1.85
2023-07-30T14:02:22.738Z,2.30
2023-07-30T14:04:50.594Z,2.17
2023-07-30T14:07:18.850Z,1.88
2023-07-30T14:09:46.713Z,1.75
2023-07-30T14:12:14.612Z,1.60
2023-07-30T14:14:42.480Z,1.75
2023-07-30T14:17:10.690Z,1.83
2023-07-30T14:19:38.554Z,1.95
2023-07-30T14:22:06.718Z,1.58
2023-07-30T14:24:35.946Z,1.55
2023-07-30T14:27:03.798Z,1.83
2023-07-30T14:29:31.732Z,1.85
2023-07-30T14:31:59.826Z,1.92
2023-07-30T14:34:27.981Z,1.60
2023-07-30T14:36:55.858Z,1.40
2023-07-30T14:39:23.823Z,2.00
2023-07-30T14:41:51.573Z,1.60
2023-07-30T14:44:20.441Z,1.42
2023-07-30T14:46:48.483Z,2.05
2023-07-30T14:49:16.539Z,1.42
2023-07-30T14:51:44.427Z,2.05
2023-07-30T14:54:12.247Z,2.45
2023-07-30T14:56:40.359Z,1.70
2023-07-30T14:59:08.740Z,2.05
2023-07-30T15:01:36.918Z,1.90
2023-07-30T15:04:06.007Z,1.95
2023-07-30T15:06:34.203Z,1.60
2023-07-30T15:09:02.629Z,2.60
2023-07-30T15:11:30.424Z,2.13
2023-07-30T15:13:58.560Z,2.55
2023-07-30T15:16:26.506Z,2.72
2023-07-30T15:18:54.456Z,2.25
2023-07-30T15:21:22.502Z,2.53
2023-07-30T15:23:50.291Z,2.15
2023-07-30T15:26:18.394Z,2.33
2023-07-30T15:28:46.236Z,2.50
2023-07-30T15:31:15.416Z,2.33
2023-07-30T15:33:43.393Z,2.90
2023-07-30T15:36:11.572Z,1.55
2023-07-30T15:38:39.394Z,1.83
2023-07-30T15:41:07.284Z,2.50
2023-07-30T15:43:35.242Z,2.22
2023-07-30T15:46:03.582Z,2.50
2023-07-30T15:48:31.967Z,1.70
2023-07-30T15:51:04.293Z,1.48
2023-07-30T15:53:32.516Z,1.67
2023-07-30T15:56:05.034Z,1.75
2023-07-30T15:58:33.215Z,2.28
2023-07-30T16:01:13.591Z,1.65
2023-07-30T16:03:42.091Z,1.80
2023-07-30T16:06:10.318Z,2.33
2023-07-30T16:08:38.987Z,1.58
2023-07-30T16:11:13.116Z,2.08
2023-07-30T16:13:41.286Z,1.83
2023-07-30T16:16:14.643Z,2.03
2023-07-30T16:18:45.510Z,2.05
2023-07-30T16:21:13.389Z,1.90
2023-07-30T16:23:41.791Z,1.85
2023-07-30T16:26:10.412Z,2.25
2023-07-30T16:28:38.937Z,2.10
2023-07-30T16:31:06.904Z,1.35
2023-07-30T16:33:35.008Z,1.88
2023-07-30T16:36:05.624Z,1.90
2023-07-30T16:38:33.603Z,1.70
2023-07-30T16:41:04.052Z,2.03
2023-07-30T16:43:31.879Z,1.95
2023-07-30T16:46:05.115Z,1.42
2023-07-30T16:48:33.511Z,1.92
2023-07-30T16:51:01.374Z,2.35
2023-07-30T16:53:29.384Z,1.95
2023-07-30T16:55:58.135Z,1.95
2023-07-30T16:58:25.927Z,1.45
2023-07-30T17:01:02.999Z,1.70
2023-07-30T17:03:31.919Z,1.85
2023-07-30T17:06:01.607Z,1.63
2023-07-30T17:08:29.721Z,1.80
2023-07-30T17:10:58.054Z,1.80
2023-07-30T17:13:26.040Z,1.50
2023-07-30T17:15:53.927Z,1.85
2023-07-30T17:20:58.775Z,1.90
2023-07-30T17:23:26.863Z,1.67
2023-07-30T17:26:00.511Z,1.85
2023-07-30T17:28:30.515Z,2.15
2023-07-30T17:30:58.562Z,1.50
2023-07-30T17:35:55.034Z,2.10
2023-07-30T17:38:23.055Z,1.45
2023-07-30T17:43:23.920Z,1.58
2023-07-30T17:45:52.183Z,2.13
2023-07-30T17:48:20.885Z,2.03
2023-07-30T17:50:49.845Z,2.38
2023-07-30T17:53:17.691Z,1.58
2023-07-30T17:55:45.689Z,1.95
2023-07-30T17:58:13.662Z,3.70
2023-07-30T18:03:13.623Z,3.05
2023-07-30T18:08:18.502Z,2.13
2023-07-30T18:10:49.858Z,2.65
2023-07-30T18:13:18.589Z,2.50
2023-07-30T18:16:05.619Z,2.90
2023-07-30T18:21:01.513Z,2.00
2023-07-30T18:23:29.670Z,1.98
2023-07-30T18:25:57.710Z,2.13
2023-07-30T18:28:25.736Z,2.47
2023-07-30T18:30:53.632Z,2.65
2023-07-30T18:33:21.577Z,2.30
2023-07-30T18:35:49.568Z,2.03
2023-07-30T18:38:17.569Z,2.33
2023-07-30T18:40:45.514Z,3.05
2023-07-30T18:43:13.499Z,2.40
2023-07-30T18:45:41.535Z,2.85
2023-07-30T18:48:09.598Z,2.00
2023-07-30T18:50:38.168Z,3.58
2023-07-30T18:53:05.838Z,2.00
2023-07-30T18:55:53.485Z,1.90
2023-07-30T18:58:21.444Z,2.47
2023-07-30T19:00:51.960Z,2.38
2023-07-30T19:03:19.952Z,6.38
2023-07-30T19:06:00.744Z,2.28
2023-07-30T19:08:28.825Z,3.88
2023-07-30T19:10:56.560Z,2.45
2023-07-30T19:13:24.563Z,2.05
2023-07-30T19:15:52.444Z,2.53
2023-07-30T19:18:20.554Z,3.20
2023-07-30T19:20:48.585Z,3.63
2023-07-30T19:23:16.443Z,2.97
2023-07-30T19:25:52.463Z,2.40
2023-07-30T19:28:21.615Z,2.80
2023-07-30T19:30:49.547Z,2.90
2023-07-30T19:33:17.972Z,2.17
2023-07-30T19:35:51.183Z,2.25
2023-07-30T19:38:25.159Z,2.63
2023-07-30T19:40:56.804Z,2.35
2023-07-30T19:43:25.515Z,2.65
2023-07-30T19:45:54.607Z,3.15
2023-07-30T19:48:23.661Z,3.88
2023-07-30T19:50:53.443Z,3.80
2023-07-30T19:53:21.807Z,3.60
2023-07-30T19:55:50.068Z,3.80
2023-07-30T19:58:28.390Z,4.22
2023-07-30T20:01:01.878Z,4.13
2023-07-30T20:03:31.052Z,4.45
2023-07-30T20:06:03.631Z,4.35
2023-07-30T20:08:31.555Z,4.55
2023-07-30T20:11:00.876Z,4.00
2023-07-30T20:13:28.691Z,4.68
2023-07-30T20:15:57.104Z,4.95
2023-07-30T20:18:26.351Z,3.72
2023-07-30T20:20:54.457Z,4.75
2023-07-30T20:23:23.047Z,4.30
2023-07-30T20:25:50.748Z,4.30
2023-07-30T20:28:18.507Z,4.00
2023-07-30T20:30:46.468Z,4.45
2023-07-30T20:33:14.513Z,3.83
2023-07-30T20:35:42.314Z,4.57
2023-07-30T20:38:10.109Z,5.13
2023-07-30T20:40:37.896Z,4.90
2023-07-30T20:43:05.708Z,4.95
2023-07-30T20:45:34.236Z,3.85
2023-07-30T20:48:02.270Z,5.70
2023-07-30T20:50:30.159Z,4.25
2023-07-30T20:52:57.907Z,4.22
2023-07-30T20:55:26.511Z,4.22
2023-07-30T20:57:54.165Z,4.35
2023-07-30T21:00:21.884Z,4.30
2023-07-30T21:02:49.820Z,4.35
2023-07-30T21:05:17.875Z,3.85
2023-07-30T21:07:45.638Z,4.13
2023-07-30T21:10:13.307Z,3.42
2023-07-30T21:12:42.430Z,2.42
2023-07-30T21:15:11.922Z,2.10
2023-07-30T21:17:40.161Z,2.00
2023-07-30T21:20:08.674Z,2.22
2023-07-30T21:22:36.573Z,1.55
2023-07-30T21:25:06.086Z,1.73
2023-07-30T21:27:33.779Z,1.48
2023-07-30T21:30:02.634Z,1.52
2023-07-30T21:32:30.723Z,2.35
2023-07-30T21:37:27.469Z,2.08
2023-07-30T21:40:02.161Z,2.60
2023-07-30T21:42:30.400Z,1.83
2023-07-30T21:47:26.482Z,3.60
2023-07-30T21:49:54.445Z,3.00
2023-07-30T21:52:27.241Z,2.33
2023-07-30T21:54:57.563Z,2.38
2023-07-30T21:57:26.543Z,2.63
2023-07-30T21:59:54.867Z,1.85
2023-07-30T22:04:51.848Z,1.65
2023-07-30T22:07:19.696Z,1.65
2023-07-30T22:09:47.589Z,1.95
2023-07-30T22:12:15.381Z,1.92
2023-07-30T22:14:43.036Z,1.90
2023-07-30T22:17:11.666Z,1.48
2023-07-30T22:19:39.457Z,1.50
2023-07-30T22:22:07.240Z,1.75
2023-07-30T22:27:02.862Z,1.95
2023-07-30T22:29:31.861Z,2.13
2023-07-30T22:31:59.819Z,1.75
2023-07-30T22:34:27.624Z,1.80
2023-07-30T22:36:55.281Z,1.83
2023-07-30T22:39:23.004Z,1.60
2023-07-30T22:41:50.569Z,1.83
2023-07-30T22:44:18.381Z,1.67
2023-07-30T22:46:46.019Z,1.75
2023-07-30T22:49:13.624Z,1.70
2023-07-30T22:51:41.561Z,1.70
2023-07-30T22:54:09.369Z,1.77
2023-07-30T22:56:37.722Z,1.50
2023-07-30T22:59:05.999Z,2.30
2023-07-30T23:01:33.732Z,1.75
2023-07-30T23:04:01.334Z,2.35
2023-07-30T23:06:29.029Z,2.40
2023-07-30T23:08:56.632Z,1.90
2023-07-30T23:11:24.602Z,2.00
2023-07-30T23:13:52.370Z,1.88
2023-07-30T23:16:19.999Z,2.17
2023-07-30T23:18:47.911Z,1.98
2023-07-30T23:21:15.557Z,1.50
2023-07-30T23:23:44.927Z,2.15
2023-07-30T23:26:12.593Z,1.95
2023-07-30T23:28:40.560Z,2.50
2023-07-30T23:31:08.457Z,2.17
2023-07-30T23:33:36.057Z,1.70
2023-07-30T23:36:10.443Z,1.83
2023-07-30T23:38:38.523Z,2.00
2023-07-30T23:41:06.444Z,1.80
2023-07-30T23:43:34.463Z,1.40
2023-07-30T23:46:02.103Z,2.00
2023-07-30T23:48:29.873Z,1.73
2023-07-30T23:51:05.149Z,1.80
2023-07-30T23:53:33.497Z,1.83
2023-07-30T23:56:01.491Z,1.73
2023-07-30T23:58:29.508Z,1.83
